Phoenix, AZ (85062)

2:32 PM MST on July 06, 2015 (GMT -0700)
Sherwood Estates | | Change Station
CLOSE
Current Station
Personal Weather Station
Location: Scottsdale, AZ
Elevation: 1289 ft
Nearby Weather Stations

Elev 1289 ft 33.48 °N, 111.95 °W | Updated 10 seconds ago

Scattered Clouds
Scattered Clouds
105.1 °F
Feels Like 112 °F
N
8.9
Wind Variable Wind from SW
Gusts 8.9 mph

Today
High -- | Low -- °F
--% Chance of Precip.
Yesterday
High -- | Low -- °F
Precip. -- in
5:23 AM 7:41 PM
Waning Gibbous, 72% visible
Pressure 29.82 in
Visibility 10.0 miles
Clouds Few 9000 ft
Few 16000 ft
Scattered Clouds 25000 ft
Heat Index 112 °F
Dew Point 67 °F
Humidity 30%
Rainfall 0.00 in
Snow Depth Not available.
UV 9 out of 12
Pollen 1.00 out of 12
Air Quality Not available.
Flu Activity Not available.
METAR KPHX 062051Z VRB03KT 10SM FEW090 FEW160 SCT250 38/16 A2988 RMK AO2 SLP097 CB DSNT N AND SE-S T03780156 58027

More Conditions Fewer Conditions

Pressure 29.82 in
Visibility 10.0 miles
Clouds Few 9000 ft
Few 16000 ft
Scattered Clouds 25000 ft
Heat Index 112 °F
Dew Point 67 °F
Humidity 30%
Rainfall 0.00 in
Snow Depth Not available.
UV 9 out of 12
Pollen 1.00 out of 12
Air Quality Not available.
Flu Activity Not available.
METAR KPHX 062051Z VRB03KT 10SM FEW090 FEW160 SCT250 38/16 A2988 RMK AO2 SLP097 CB DSNT N AND SE-S T03780156 58027

More Conditions Fewer Conditions

10-Day Weather Forecast

×

Almanac

Astronomy

Jul. 06, 2015 Rise Set
Actual Time
Civil Twilight
Nautical Twilight
Astronomical Twilight
Moon
Length of Visible Light
Length of Day
Tomorrow will be .
, % of the Moon is Illuminated

Today's Extremes

State Highs State Lows

Community

WunderPhotos

Upload Photos

1,835,659 photos uploaded!

WunderBlogs® & News

Nearby

Air Quality

  Air Quality AQ Index Pollutant
Not available.

Snow Depth

Station Depth Elevation

Earthquake Activity

City Distance Mag. Time & Date
Minimum magnitude displayed is 2.5.

Coastal Water Temperatures

Place Temperature

Stations

Nearby Weather Stations

Station Location Temp. Windchill Dew Point Humidity Wind Precip. Elev Updated Type